createdAt,value
2023-02-02T00:02:06.672Z,9.07
2023-02-02T00:07:01.616Z,7.75
2023-02-02T00:11:54.225Z,7.28
2023-02-02T00:16:49.455Z,8.82
2023-02-02T00:21:43.794Z,7.07
2023-02-02T00:26:38.542Z,8.73
2023-02-02T00:31:32.367Z,7.60
2023-02-02T00:36:25.178Z,7.75
2023-02-02T00:41:18.597Z,8.52
2023-02-02T00:46:19.139Z,6.78
2023-02-02T00:51:13.250Z,8.32
2023-02-02T00:56:07.335Z,9.02
2023-02-02T01:01:00.986Z,7.90
2023-02-02T01:05:55.088Z,6.07
2023-02-02T01:10:49.514Z,5.28
2023-02-02T01:15:42.983Z,5.47
2023-02-02T01:20:37.360Z,6.03
2023-02-02T01:25:33.132Z,6.50
2023-02-02T01:30:27.043Z,6.53
2023-02-02T01:35:22.407Z,6.32
2023-02-02T01:40:17.459Z,6.13
2023-02-02T01:45:19.623Z,6.60
2023-02-02T01:50:14.372Z,6.25
2023-02-02T01:55:10.234Z,5.22
2023-02-02T02:00:08.646Z,5.55
2023-02-02T02:05:06.731Z,5.13
2023-02-02T02:10:00.417Z,5.40
2023-02-02T02:15:11.782Z,4.43
2023-02-02T02:20:50.525Z,4.97
2023-02-02T02:26:36.136Z,5.03
2023-02-02T02:31:34.336Z,5.32
2023-02-02T02:36:51.415Z,4.60
2023-02-02T02:41:51.610Z,5.32
2023-02-02T02:46:45.398Z,5.63
2023-02-02T02:51:53.755Z,5.43
2023-02-02T02:57:04.939Z,4.80
2023-02-02T03:02:09.887Z,6.15
2023-02-02T03:07:17.223Z,5.05
2023-02-02T03:12:10.221Z,4.50
2023-02-02T03:17:03.427Z,3.92
2023-02-02T03:21:56.797Z,4.45
2023-02-02T03:26:50.121Z,4.82
2023-02-02T03:31:43.355Z,5.35
2023-02-02T03:36:36.743Z,4.35
2023-02-02T03:41:29.764Z,4.38
2023-02-02T03:46:22.871Z,4.70
2023-02-02T03:51:16.810Z,6.28
2023-02-02T03:56:11.186Z,5.60
2023-02-02T04:01:09.520Z,6.25
2023-02-02T04:06:02.804Z,5.57
2023-02-02T04:10:56.430Z,5.43
2023-02-02T04:15:49.800Z,6.38
2023-02-02T04:20:42.969Z,7.60
2023-02-02T04:25:40.741Z,7.53
2023-02-02T04:30:33.333Z,9.05
2023-02-02T04:35:27.668Z,9.80
2023-02-02T04:40:21.311Z,9.52
2023-02-02T04:45:15.160Z,8.65
2023-02-02T04:50:12.958Z,10.18
2023-02-02T04:55:08.012Z,11.05
2023-02-02T05:00:02.390Z,13.00
2023-02-02T05:04:55.410Z,11.20
2023-02-02T05:09:48.683Z,12.88
2023-02-02T05:14:42.049Z,11.77
2023-02-02T05:19:35.333Z,10.18
2023-02-02T05:24:28.270Z,9.98
2023-02-02T05:29:22.914Z,10.98
2023-02-02T05:34:16.694Z,9.38
2023-02-02T05:39:11.213Z,12.10
2023-02-02T05:44:05.029Z,11.38
2023-02-02T05:48:59.652Z,12.38
2023-02-02T05:53:51.961Z,10.95
2023-02-02T05:58:48.329Z,12.57
2023-02-02T06:03:40.817Z,9.10
2023-02-02T06:08:35.304Z,7.82
2023-02-02T06:13:28.584Z,9.63
2023-02-02T06:18:22.032Z,8.50
2023-02-02T06:23:14.255Z,7.13
2023-02-02T06:28:07.919Z,9.02
2023-02-02T06:33:01.196Z,8.73
2023-02-02T06:37:53.797Z,7.35
2023-02-02T06:42:47.893Z,7.80
2023-02-02T06:47:41.335Z,8.85
2023-02-02T06:52:34.728Z,6.78
2023-02-02T06:57:27.398Z,10.00
2023-02-02T07:02:21.094Z,9.45
2023-02-02T07:07:14.077Z,7.57
2023-02-02T07:12:08.055Z,7.00
2023-02-02T07:17:01.246Z,6.10
2023-02-02T07:21:54.956Z,5.43
2023-02-02T07:26:48.445Z,7.60
2023-02-02T07:31:42.289Z,9.38
2023-02-02T07:36:36.560Z,7.97
2023-02-02T07:41:30.600Z,11.95
2023-02-02T07:46:24.546Z,8.38
2023-02-02T07:51:18.149Z,6.95
2023-02-02T07:56:20.030Z,6.95
2023-02-02T08:01:14.861Z,7.75
2023-02-02T08:06:13.935Z,8.40
2023-02-02T08:11:09.920Z,10.30
2023-02-02T08:16:03.660Z,10.80
2023-02-02T08:20:59.101Z,12.38
2023-02-02T08:25:52.576Z,11.57
2023-02-02T08:30:46.951Z,11.25
2023-02-02T08:35:43.535Z,12.75
2023-02-02T08:40:38.049Z,12.43
2023-02-02T08:46:07.790Z,14.63
2023-02-02T08:50:44.689Z,13.57
2023-02-02T08:55:38.467Z,13.18
2023-02-02T09:00:31.235Z,12.13
2023-02-02T09:05:24.092Z,12.20
2023-02-02T09:10:18.740Z,11.77
2023-02-02T09:15:13.530Z,10.88
2023-02-02T09:20:10.258Z,13.82
2023-02-02T09:25:02.360Z,10.77
2023-02-02T09:29:55.067Z,11.18
2023-02-02T09:34:47.341Z,10.32
2023-02-02T09:39:40.489Z,10.00
2023-02-02T09:45:09.526Z,9.70
2023-02-02T09:50:27.391Z,11.30
2023-02-02T09:55:40.772Z,14.32
2023-02-02T10:00:40.902Z,12.35
2023-02-02T10:05:45.616Z,10.80
2023-02-02T10:11:18.264Z,11.18
2023-02-02T10:16:17.606Z,9.10
2023-02-02T10:22:00.559Z,9.23
2023-02-02T10:27:14.613Z,7.95
2023-02-02T10:32:24.025Z,7.32
2023-02-02T10:37:57.458Z,7.30
2023-02-02T10:43:14.110Z,8.48
2023-02-02T10:48:49.725Z,7.60
2023-02-02T10:53:52.660Z,7.13
2023-02-02T10:59:06.564Z,6.53
2023-02-02T11:04:17.381Z,7.93
2023-02-02T11:09:12.544Z,8.85
2023-02-02T11:14:08.287Z,6.68
2023-02-02T11:19:01.796Z,6.22
2023-02-02T11:24:09.483Z,5.80
2023-02-02T11:29:01.962Z,6.05
2023-02-02T11:33:55.718Z,6.03
2023-02-02T11:38:49.573Z,5.07
2023-02-02T11:44:07.301Z,4.13
2023-02-02T11:49:09.263Z,3.60
2023-02-02T11:54:23.048Z,3.35
2023-02-02T11:59:44.901Z,3.72
2023-02-02T12:04:44.195Z,1.60
2023-02-02T12:09:36.542Z,1.20
2023-02-02T12:14:35.267Z,1.30
2023-02-02T12:19:35.467Z,1.60
2023-02-02T12:24:29.700Z,1.10
2023-02-02T12:29:55.401Z,1.50
2023-02-02T12:35:21.815Z,1.70
2023-02-02T12:40:32.312Z,1.33
2023-02-02T12:45:39.401Z,1.52
2023-02-02T12:51:01.284Z,1.80
2023-02-02T12:55:55.287Z,1.95
2023-02-02T13:01:01.385Z,1.40
2023-02-02T13:06:33.700Z,1.42
2023-02-02T13:11:51.946Z,1.20
2023-02-02T13:16:50.230Z,1.35
2023-02-02T13:21:46.512Z,1.63
2023-02-02T13:26:43.133Z,1.30
2023-02-02T13:31:50.254Z,1.13
2023-02-02T13:36:58.138Z,1.20
2023-02-02T13:42:31.934Z,1.27
2023-02-02T13:47:46.746Z,0.98
2023-02-02T13:53:07.540Z,1.00
2023-02-02T13:58:24.293Z,0.80
2023-02-02T14:03:32.752Z,0.90
2023-02-02T14:08:28.387Z,0.98
2023-02-02T14:13:45.206Z,0.98
2023-02-02T14:18:52.958Z,1.05
2023-02-02T14:23:51.303Z,0.73
2023-02-02T14:28:47.963Z,0.90
2023-02-02T14:33:48.125Z,0.90
2023-02-02T14:38:57.833Z,0.90
2023-02-02T14:43:52.383Z,0.88
2023-02-02T14:48:54.417Z,1.02
2023-02-02T14:53:53.796Z,1.13
2023-02-02T14:58:51.923Z,0.90
2023-02-02T15:03:48.820Z,1.30
2023-02-02T15:08:47.406Z,1.55
2023-02-02T15:13:41.048Z,1.30
2023-02-02T15:18:41.878Z,1.75
2023-02-02T15:23:39.407Z,2.00
2023-02-02T15:28:46.495Z,1.92
2023-02-02T15:34:17.016Z,1.10
2023-02-02T15:39:21.992Z,1.30
2023-02-02T15:44:28.554Z,1.95
2023-02-02T15:49:33.213Z,1.40
2023-02-02T15:54:32.267Z,1.70
2023-02-02T15:59:28.257Z,1.60
2023-02-02T16:04:27.548Z,2.90
2023-02-02T16:09:25.688Z,2.20
2023-02-02T16:14:18.539Z,3.42
2023-02-02T16:19:21.893Z,3.40
2023-02-02T16:24:25.472Z,3.78
2023-02-02T16:29:20.003Z,2.20
2023-02-02T16:34:42.351Z,3.50
2023-02-02T16:39:35.467Z,3.95
2023-02-02T16:44:45.571Z,5.50
2023-02-02T16:49:39.371Z,6.95
2023-02-02T16:54:32.803Z,6.57
2023-02-02T16:59:28.726Z,5.65
2023-02-02T17:04:32.467Z,7.53
2023-02-02T17:09:34.051Z,7.55
2023-02-02T17:14:40.286Z,8.90
2023-02-02T17:19:33.985Z,6.78
2023-02-02T17:24:27.465Z,5.95
2023-02-02T17:29:22.156Z,7.80
2023-02-02T17:34:15.259Z,9.52
2023-02-02T17:39:11.604Z,26.40
2023-02-02T17:44:07.882Z,15.48
2023-02-02T17:49:05.810Z,26.48
2023-02-02T17:54:04.543Z,22.88
2023-02-02T17:59:05.385Z,17.63
2023-02-02T18:04:07.421Z,16.50
2023-02-02T18:09:09.246Z,13.23
2023-02-02T18:14:10.537Z,7.63
2023-02-02T18:19:11.141Z,7.10
2023-02-02T18:24:07.837Z,6.93
2023-02-02T18:29:07.793Z,6.85
2023-02-02T18:34:05.493Z,8.70
2023-02-02T18:39:00.741Z,7.72
2023-02-02T18:43:57.986Z,20.25
2023-02-02T18:48:53.241Z,21.05
2023-02-02T18:53:47.448Z,34.67
2023-02-02T18:58:44.419Z,33.22
2023-02-02T19:03:41.723Z,31.27
2023-02-02T19:08:36.255Z,27.27
2023-02-02T19:13:32.644Z,16.80
2023-02-02T19:18:27.163Z,20.77
2023-02-02T19:23:26.613Z,15.98
2023-02-02T19:28:28.408Z,15.32
2023-02-02T19:33:22.140Z,18.73
2023-02-02T19:38:20.705Z,23.95
2023-02-02T19:43:14.702Z,9.37
2023-02-02T19:48:28.624Z,9.98
2023-02-02T19:53:28.803Z,9.50
2023-02-02T19:58:23.719Z,12.38
2023-02-02T20:03:25.793Z,10.45
2023-02-02T20:08:28.311Z,6.13
2023-02-02T20:13:49.240Z,5.65
2023-02-02T20:18:45.051Z,6.18
2023-02-02T20:23:45.166Z,4.95
2023-02-02T20:28:45.484Z,9.60
2023-02-02T20:33:38.454Z,7.25
2023-02-02T20:38:39.291Z,5.97
2023-02-02T20:43:32.267Z,6.22
2023-02-02T20:48:28.157Z,6.90
2023-02-02T20:53:22.238Z,6.45
2023-02-02T20:58:16.677Z,11.65
2023-02-02T21:03:09.733Z,8.73
2023-02-02T21:08:03.504Z,7.45
2023-02-02T21:12:57.420Z,10.48
2023-02-02T21:17:50.936Z,11.38
2023-02-02T21:22:44.579Z,8.90
2023-02-02T21:27:41.391Z,7.40
2023-02-02T21:32:35.006Z,8.23
2023-02-02T21:37:27.813Z,7.65
2023-02-02T21:42:25.597Z,7.60
2023-02-02T21:47:39.517Z,9.15
2023-02-02T21:52:34.370Z,10.02
2023-02-02T21:57:36.515Z,8.38
2023-02-02T22:02:39.333Z,6.50
2023-02-02T22:07:33.697Z,5.20
2023-02-02T22:12:27.585Z,4.70
2023-02-02T22:17:32.313Z,3.33
2023-02-02T22:22:27.169Z,3.92
2023-02-02T22:27:25.214Z,4.43
2023-02-02T22:32:19.066Z,5.70
2023-02-02T22:37:12.768Z,4.82
2023-02-02T22:42:06.842Z,5.65
2023-02-02T22:46:59.808Z,7.38
2023-02-02T22:51:54.269Z,5.18
2023-02-02T22:56:49.727Z,4.22
2023-02-02T23:01:44.858Z,5.43
2023-02-02T23:06:39.184Z,4.93
2023-02-02T23:11:33.785Z,6.97
2023-02-02T23:16:27.499Z,6.28
2023-02-02T23:21:21.858Z,6.00
2023-02-02T23:26:16.526Z,6.10
2023-02-02T23:31:12.537Z,6.80
2023-02-02T23:36:08.509Z,5.90
2023-02-02T23:41:02.384Z,6.78
2023-02-02T23:45:55.390Z,6.78
2023-02-02T23:50:50.779Z,6.15
2023-02-02T23:55:44.052Z,4.32
